Дата Время Давление Темп. Влажн. Скор.ветра Напр.ветра Макс.ветер Осадки/час Осадки
25.02.24 02:00 753.4 1.4 87.8 3.1 179 6.8 0 0
25.02.24 01:00 753.2 1.8 83.9 3.3 182 7.6 0 0
25.02.24 00:00 753.2 2.2 78.6 3.5 181 8.9 0 0
24.02.24 23:00 753.1 2.3 78.9 3.5 181 9.2 0 0
24.02.24 22:00 753 2.4 81.6 4.2 178 9 0 0
24.02.24 21:00 752.9 2.2 83.8 3.9 178 8.6 0 0
24.02.24 20:00 753 2 84.3 4.1 175 8.6 0 0
24.02.24 19:00 753.1 1.9 85 3.7 177 7.6 0 0
24.02.24 18:00 753.1 1.9 84.3 3.6 178 8.1 0 0
24.02.24 17:00 752.8 2.1 83.3 2.6 180 7.2 0 0
24.02.24 16:00 752.8 2.2 83 3.4 179 6.8 0 0
24.02.24 15:00 752.9 2 83.9 3.1 181 10.3 0 0
24.02.24 14:00 752.8 1.7 84.3 4.5 176 8 0 0
24.02.24 13:00 752.8 1.4 85.9 3.5 175 7.2 0 0
24.02.24 12:00 752.7 1.3 86.9 3.2 182 9.1 0 0
24.02.24 11:00 752.4 1 87.9 3.4 180 9 0 0
24.02.24 10:00 752.6 0.8 88.7 3.1 180 8.3 0 0
24.02.24 09:00 752.2 0.7 88.2 4.1 178 10.3 0 0
24.02.24 08:00 752.1 0.7 87.7 4.1 176 7.3 0 0
24.02.24 07:00 752 0.6 87.6 2.9 180 6.5 0 0
24.02.24 06:00 751.8 0.5 87.3 2.8 181 7.4 0 0
24.02.24 05:00 751.6 0.3 88 3.1 177 7.6 0 0
24.02.24 04:00 751.4 0.1 89.7 3.4 180 7.5 0 0
24.02.24 03:00 751.4 0.3 90.4 3.8 181 7.3 0 0